テヘラン の空港の天気 - METARとTAF

メヘラーバード国際空港(テヘラン) ( OIII / THR ) - イラン テヘラン
飛行場実況気象(Metar)
観測時間10/16 10:00 IRST (10/16 06:30 UTC)
風向・風速南南東 2m/s
視程10km以上
天気現象
少しの雲 雲底高度 1220m
気温18℃
湿度39%
気圧1026hPa
METAROIII 160630Z 15004KT 9999 FEW040 18/04 Q1026 A3031
過去の天気等 Google飛行場航空写真 Wunderground天気予報

過去48時間のMETAR

飛行場予報(TAF)
発表時間: 10/16 09:00 IRST (10/16 05:30 UTC)
予報対象時間: 16日9時 IRST ~ 17日15時 IRST
風向・風速西北西 4m/s
視程8000m
少しの雲 雲底高度 1220m
16日15時 IRST ~ 16日17時 IRST に徐々に
風向・風速東北東 10m/s
少しの積乱雲 雲底高度 1070m
全天の4割程度の雲 雲底高度 1220m
全天の8割程度の雲 雲底高度 2740m
16日23時 IRST ~ 17日3時 IRST に徐々に
風向・風速北西 4m/s
少しの雲 雲底高度 1070m
TAF OIII 160530Z 1606/1712 30004MPS 8000 FEW040
BECMG 1612/1614 06010MPS FEW035CB SCT040 BKN090
BECMG 1620/1624 32004MPS FEW035